sensor_id;sensor_type;location;lat;lon;timestamp;P1;durP1;ratioP1;P2;durP2;ratioP2
45296;SDS011;31040;51.622;10.420;2023-06-26T00:00:13;6.15;;;5.55;;
45296;SDS011;31040;51.622;10.420;2023-06-26T00:02:41;5.88;;;5.07;;
45296;SDS011;31040;51.622;10.420;2023-06-26T00:05:08;8.60;;;5.82;;
45296;SDS011;31040;51.622;10.420;2023-06-26T00:07:36;7.07;;;5.57;;
45296;SDS011;31040;51.622;10.420;2023-06-26T00:10:03;6.35;;;4.93;;
45296;SDS011;31040;51.622;10.420;2023-06-26T00:12:31;6.13;;;5.53;;
45296;SDS011;31040;51.622;10.420;2023-06-26T00:14:59;6.10;;;5.25;;
45296;SDS011;31040;51.622;10.420;2023-06-26T00:17:26;8.05;;;5.38;;
45296;SDS011;31040;51.622;10.420;2023-06-26T00:19:54;6.80;;;5.68;;
45296;SDS011;31040;51.622;10.420;2023-06-26T00:22:21;5.75;;;5.05;;
45296;SDS011;31040;51.622;10.420;2023-06-26T00:24:49;7.13;;;5.50;;
45296;SDS011;31040;51.622;10.420;2023-06-26T00:27:16;6.93;;;6.32;;
45296;SDS011;31040;51.622;10.420;2023-06-26T00:29:43;6.05;;;5.45;;
45296;SDS011;31040;51.622;10.420;2023-06-26T00:32:11;5.65;;;5.05;;
45296;SDS011;31040;51.622;10.420;2023-06-26T00:34:38;6.30;;;4.80;;
45296;SDS011;31040;51.622;10.420;2023-06-26T00:37:06;5.63;;;5.03;;
45296;SDS011;31040;51.622;10.420;2023-06-26T00:39:33;7.10;;;5.15;;
45296;SDS011;31040;51.622;10.420;2023-06-26T00:42:01;5.63;;;5.13;;
45296;SDS011;31040;51.622;10.420;2023-06-26T00:44:28;7.47;;;5.40;;
45296;SDS011;31040;51.622;10.420;2023-06-26T00:46:56;7.30;;;5.30;;
45296;SDS011;31040;51.622;10.420;2023-06-26T00:49:24;5.82;;;5.15;;
45296;SDS011;31040;51.622;10.420;2023-06-26T00:51:51;5.93;;;5.15;;
45296;SDS011;31040;51.622;10.420;2023-06-26T00:54:19;6.28;;;5.05;;
45296;SDS011;31040;51.622;10.420;2023-06-26T00:56:48;5.70;;;5.10;;
45296;SDS011;31040;51.622;10.420;2023-06-26T00:59:16;5.57;;;5.10;;
45296;SDS011;31040;51.622;10.420;2023-06-26T01:01:43;6.28;;;5.30;;
45296;SDS011;31040;51.622;10.420;2023-06-26T01:04:10;6.00;;;5.40;;
45296;SDS011;31040;51.622;10.420;2023-06-26T01:06:47;5.75;;;4.93;;
45296;SDS011;31040;51.622;10.420;2023-06-26T01:09:19;7.10;;;4.85;;
45296;SDS011;31040;51.622;10.420;2023-06-26T01:11:47;6.60;;;5.47;;
45296;SDS011;31040;51.622;10.420;2023-06-26T01:14:14;6.68;;;5.32;;
45296;SDS011;31040;51.622;10.420;2023-06-26T01:16:41;5.95;;;5.05;;
45296;SDS011;31040;51.622;10.420;2023-06-26T01:19:34;5.35;;;4.85;;
45296;SDS011;31040;51.622;10.420;2023-06-26T01:24:32;6.78;;;5.25;;
45296;SDS011;31040;51.622;10.420;2023-06-26T01:27:03;5.38;;;4.88;;
45296;SDS011;31040;51.622;10.420;2023-06-26T01:29:31;7.00;;;5.45;;
45296;SDS011;31040;51.622;10.420;2023-06-26T01:31:59;10.43;;;5.15;;
45296;SDS011;31040;51.622;10.420;2023-06-26T01:34:28;7.40;;;5.25;;
45296;SDS011;31040;51.622;10.420;2023-06-26T01:36:56;5.22;;;4.82;;
45296;SDS011;31040;51.622;10.420;2023-06-26T01:39:24;5.60;;;5.10;;
45296;SDS011;31040;51.622;10.420;2023-06-26T01:41:51;6.18;;;5.55;;
45296;SDS011;31040;51.622;10.420;2023-06-26T01:44:23;5.75;;;5.15;;
45296;SDS011;31040;51.622;10.420;2023-06-26T01:47:02;5.35;;;4.85;;
45296;SDS011;31040;51.622;10.420;2023-06-26T01:54:33;5.78;;;5.22;;
45296;SDS011;31040;51.622;10.420;2023-06-26T01:57:04;6.00;;;5.40;;
45296;SDS011;31040;51.622;10.420;2023-06-26T01:59:32;5.47;;;4.97;;
45296;SDS011;31040;51.622;10.420;2023-06-26T02:02:01;8.55;;;5.47;;
45296;SDS011;31040;51.622;10.420;2023-06-26T02:04:28;8.27;;;5.50;;
45296;SDS011;31040;51.622;10.420;2023-06-26T02:06:56;6.57;;;5.18;;
45296;SDS011;31040;51.622;10.420;2023-06-26T02:09:23;6.25;;;5.22;;
45296;SDS011;31040;51.622;10.420;2023-06-26T02:11:50;6.57;;;5.22;;
45296;SDS011;31040;51.622;10.420;2023-06-26T02:14:18;6.82;;;5.63;;
45296;SDS011;31040;51.622;10.420;2023-06-26T02:16:45;5.80;;;5.25;;
45296;SDS011;31040;51.622;10.420;2023-06-26T02:19:12;8.10;;;5.53;;
45296;SDS011;31040;51.622;10.420;2023-06-26T02:21:50;7.25;;;5.15;;
45296;SDS011;31040;51.622;10.420;2023-06-26T02:24:18;6.55;;;5.25;;
45296;SDS011;31040;51.622;10.420;2023-06-26T02:26:45;6.30;;;5.47;;
45296;SDS011;31040;51.622;10.420;2023-06-26T02:29:12;7.30;;;5.25;;
45296;SDS011;31040;51.622;10.420;2023-06-26T02:31:40;6.45;;;5.20;;
45296;SDS011;31040;51.622;10.420;2023-06-26T02:34:07;6.25;;;5.38;;
45296;SDS011;31040;51.622;10.420;2023-06-26T02:36:35;6.30;;;5.47;;
45296;SDS011;31040;51.622;10.420;2023-06-26T02:39:02;7.38;;;5.75;;
45296;SDS011;31040;51.622;10.420;2023-06-26T02:41:30;6.95;;;5.32;;
45296;SDS011;31040;51.622;10.420;2023-06-26T02:43:57;9.05;;;5.47;;
45296;SDS011;31040;51.622;10.420;2023-06-26T02:46:24;6.53;;;5.65;;
45296;SDS011;31040;51.622;10.420;2023-06-26T02:48:52;6.03;;;5.43;;
45296;SDS011;31040;51.622;10.420;2023-06-26T02:51:19;6.00;;;5.50;;
45296;SDS011;31040;51.622;10.420;2023-06-26T02:53:47;7.30;;;5.28;;
45296;SDS011;31040;51.622;10.420;2023-06-26T02:56:14;7.03;;;5.43;;
45296;SDS011;31040;51.622;10.420;2023-06-26T02:58:41;6.55;;;5.13;;
45296;SDS011;31040;51.622;10.420;2023-06-26T03:01:09;5.70;;;5.18;;
45296;SDS011;31040;51.622;10.420;2023-06-26T03:03:36;6.03;;;5.40;;
45296;SDS011;31040;51.622;10.420;2023-06-26T03:06:07;7.05;;;5.00;;
45296;SDS011;31040;51.622;10.420;2023-06-26T03:08:36;6.15;;;5.65;;
45296;SDS011;31040;51.622;10.420;2023-06-26T03:11:05;6.90;;;5.20;;
45296;SDS011;31040;51.622;10.420;2023-06-26T03:13:36;5.47;;;4.90;;
45296;SDS011;31040;51.622;10.420;2023-06-26T03:16:04;8.40;;;5.30;;
45296;SDS011;31040;51.622;10.420;2023-06-26T03:18:31;6.93;;;5.05;;
45296;SDS011;31040;51.622;10.420;2023-06-26T03:20:59;5.65;;;5.15;;
45296;SDS011;31040;51.622;10.420;2023-06-26T03:23:26;6.72;;;5.53;;
45296;SDS011;31040;51.622;10.420;2023-06-26T03:25:54;5.93;;;5.35;;
45296;SDS011;31040;51.622;10.420;2023-06-26T03:28:21;6.05;;;5.38;;
45296;SDS011;31040;51.622;10.420;2023-06-26T03:30:48;8.95;;;5.43;;
45296;SDS011;31040;51.622;10.420;2023-06-26T03:33:16;5.60;;;5.10;;
45296;SDS011;31040;51.622;10.420;2023-06-26T03:35:44;6.57;;;5.30;;
45296;SDS011;31040;51.622;10.420;2023-06-26T03:38:11;8.63;;;5.90;;
45296;SDS011;31040;51.622;10.420;2023-06-26T03:40:39;5.72;;;5.00;;
45296;SDS011;31040;51.622;10.420;2023-06-26T03:43:06;6.35;;;5.63;;
45296;SDS011;31040;51.622;10.420;2023-06-26T03:45:34;7.53;;;5.88;;
45296;SDS011;31040;51.622;10.420;2023-06-26T03:48:01;5.80;;;5.30;;
45296;SDS011;31040;51.622;10.420;2023-06-26T03:50:29;6.35;;;5.78;;
45296;SDS011;31040;51.622;10.420;2023-06-26T03:52:56;5.50;;;4.95;;
45296;SDS011;31040;51.622;10.420;2023-06-26T03:55:25;7.32;;;4.82;;
45296;SDS011;31040;51.622;10.420;2023-06-26T03:57:53;8.88;;;6.18;;
45296;SDS011;31040;51.622;10.420;2023-06-26T04:00:20;6.38;;;5.78;;
45296;SDS011;31040;51.622;10.420;2023-06-26T04:02:47;6.07;;;5.30;;
45296;SDS011;31040;51.622;10.420;2023-06-26T04:05:15;6.20;;;5.60;;
45296;SDS011;31040;51.622;10.420;2023-06-26T04:07:43;5.88;;;5.00;;
45296;SDS011;31040;51.622;10.420;2023-06-26T04:10:10;10.77;;;5.00;;
45296;SDS011;31040;51.622;10.420;2023-06-26T04:12:38;5.93;;;4.80;;
45296;SDS011;31040;51.622;10.420;2023-06-26T04:15:05;5.05;;;4.43;;
45296;SDS011;31040;51.622;10.420;2023-06-26T04:17:33;6.13;;;4.90;;
45296;SDS011;31040;51.622;10.420;2023-06-26T04:20:00;5.40;;;4.15;;
45296;SDS011;31040;51.622;10.420;2023-06-26T04:22:33;5.13;;;4.38;;
45296;SDS011;31040;51.622;10.420;2023-06-26T04:25:01;5.28;;;4.13;;
45296;SDS011;31040;51.622;10.420;2023-06-26T04:27:29;5.53;;;4.55;;
45296;SDS011;31040;51.622;10.420;2023-06-26T04:29:56;5.68;;;5.18;;
45296;SDS011;31040;51.622;10.420;2023-06-26T04:32:24;6.78;;;4.70;;
45296;SDS011;31040;51.622;10.420;2023-06-26T04:34:51;5.35;;;4.85;;
45296;SDS011;31040;51.622;10.420;2023-06-26T04:37:19;5.55;;;5.03;;
45296;SDS011;31040;51.622;10.420;2023-06-26T04:39:47;5.28;;;4.63;;
45296;SDS011;31040;51.622;10.420;2023-06-26T04:42:14;6.25;;;4.78;;
45296;SDS011;31040;51.622;10.420;2023-06-26T04:44:41;8.93;;;5.10;;
45296;SDS011;31040;51.622;10.420;2023-06-26T04:47:09;5.78;;;5.28;;
45296;SDS011;31040;51.622;10.420;2023-06-26T04:49:36;6.18;;;5.05;;
45296;SDS011;31040;51.622;10.420;2023-06-26T04:52:04;6.28;;;5.57;;
45296;SDS011;31040;51.622;10.420;2023-06-26T04:54:32;7.43;;;5.28;;
45296;SDS011;31040;51.622;10.420;2023-06-26T04:56:59;5.38;;;4.88;;
45296;SDS011;31040;51.622;10.420;2023-06-26T04:59:26;9.07;;;5.03;;
45296;SDS011;31040;51.622;10.420;2023-06-26T05:01:54;5.72;;;4.93;;
45296;SDS011;31040;51.622;10.420;2023-06-26T05:04:21;5.40;;;4.88;;
45296;SDS011;31040;51.622;10.420;2023-06-26T05:06:49;6.28;;;5.10;;
45296;SDS011;31040;51.622;10.420;2023-06-26T05:09:16;4.97;;;4.43;;
45296;SDS011;31040;51.622;10.420;2023-06-26T05:11:44;6.03;;;4.88;;
45296;SDS011;31040;51.622;10.420;2023-06-26T05:14:11;5.28;;;4.72;;
45296;SDS011;31040;51.622;10.420;2023-06-26T05:16:40;6.82;;;4.68;;
45296;SDS011;31040;51.622;10.420;2023-06-26T05:19:07;5.80;;;4.97;;
45296;SDS011;31040;51.622;10.420;2023-06-26T05:21:34;5.57;;;5.05;;
45296;SDS011;31040;51.622;10.420;2023-06-26T05:24:02;5.78;;;5.03;;
45296;SDS011;31040;51.622;10.420;2023-06-26T05:26:29;6.70;;;5.18;;
45296;SDS011;31040;51.622;10.420;2023-06-26T05:28:57;5.35;;;4.57;;
45296;SDS011;31040;51.622;10.420;2023-06-26T05:31:24;6.10;;;5.43;;
45296;SDS011;31040;51.622;10.420;2023-06-26T05:33:52;5.70;;;5.00;;
45296;SDS011;31040;51.622;10.420;2023-06-26T05:36:22;5.32;;;4.22;;
45296;SDS011;31040;51.622;10.420;2023-06-26T05:38:51;6.28;;;5.70;;
45296;SDS011;31040;51.622;10.420;2023-06-26T05:41:19;4.72;;;4.25;;
45296;SDS011;31040;51.622;10.420;2023-06-26T05:43:46;6.57;;;4.88;;
45296;SDS011;31040;51.622;10.420;2023-06-26T05:46:13;5.22;;;4.68;;
45296;SDS011;31040;51.622;10.420;2023-06-26T05:48:41;5.47;;;4.82;;
45296;SDS011;31040;51.622;10.420;2023-06-26T05:51:09;5.30;;;4.80;;
45296;SDS011;31040;51.622;10.420;2023-06-26T05:53:36;5.75;;;5.18;;
45296;SDS011;31040;51.622;10.420;2023-06-26T05:56:04;5.53;;;5.07;;
45296;SDS011;31040;51.622;10.420;2023-06-26T05:58:31;6.43;;;4.65;;
45296;SDS011;31040;51.622;10.420;2023-06-26T06:00:59;6.30;;;5.25;;
45296;SDS011;31040;51.622;10.420;2023-06-26T06:03:26;6.30;;;5.05;;
45296;SDS011;31040;51.622;10.420;2023-06-26T06:05:54;6.25;;;4.80;;
45296;SDS011;31040;51.622;10.420;2023-06-26T06:08:22;9.65;;;5.28;;
45296;SDS011;31040;51.622;10.420;2023-06-26T06:10:49;5.90;;;5.40;;
45296;SDS011;31040;51.622;10.420;2023-06-26T06:13:16;5.35;;;4.85;;
45296;SDS011;31040;51.622;10.420;2023-06-26T06:15:44;5.10;;;4.60;;
45296;SDS011;31040;51.622;10.420;2023-06-26T06:18:11;8.95;;;4.78;;
45296;SDS011;31040;51.622;10.420;2023-06-26T06:20:39;5.25;;;4.72;;
45296;SDS011;31040;51.622;10.420;2023-06-26T06:23:07;6.07;;;5.10;;
45296;SDS011;31040;51.622;10.420;2023-06-26T06:25:34;7.10;;;4.90;;
45296;SDS011;31040;51.622;10.420;2023-06-26T06:28:03;6.38;;;5.03;;
45296;SDS011;31040;51.622;10.420;2023-06-26T06:30:31;6.13;;;4.95;;
45296;SDS011;31040;51.622;10.420;2023-06-26T06:33:10;7.35;;;5.03;;
45296;SDS011;31040;51.622;10.420;2023-06-26T06:35:37;4.95;;;4.55;;
45296;SDS011;31040;51.622;10.420;2023-06-26T06:38:05;5.38;;;4.90;;
45296;SDS011;31040;51.622;10.420;2023-06-26T06:40:32;6.63;;;4.68;;
45296;SDS011;31040;51.622;10.420;2023-06-26T06:43:00;6.47;;;4.88;;
45296;SDS011;31040;51.622;10.420;2023-06-26T06:45:27;5.88;;;5.05;;
45296;SDS011;31040;51.622;10.420;2023-06-26T06:47:54;5.13;;;4.65;;
45296;SDS011;31040;51.622;10.420;2023-06-26T06:50:22;5.95;;;5.18;;
45296;SDS011;31040;51.622;10.420;2023-06-26T06:52:49;5.40;;;4.82;;
45296;SDS011;31040;51.622;10.420;2023-06-26T06:55:17;5.97;;;5.47;;
45296;SDS011;31040;51.622;10.420;2023-06-26T06:57:44;4.95;;;4.53;;
45296;SDS011;31040;51.622;10.420;2023-06-26T07:00:12;5.70;;;5.20;;
45296;SDS011;31040;51.622;10.420;2023-06-26T07:02:43;5.55;;;4.80;;
45296;SDS011;31040;51.622;10.420;2023-06-26T07:05:11;4.97;;;4.47;;
45296;SDS011;31040;51.622;10.420;2023-06-26T07:07:39;4.90;;;4.40;;
45296;SDS011;31040;51.622;10.420;2023-06-26T07:10:10;5.80;;;4.63;;
45296;SDS011;31040;51.622;10.420;2023-06-26T07:12:38;5.10;;;4.60;;
45296;SDS011;31040;51.622;10.420;2023-06-26T07:15:05;5.30;;;4.80;;
45296;SDS011;31040;51.622;10.420;2023-06-26T07:17:34;4.68;;;4.28;;
45296;SDS011;31040;51.622;10.420;2023-06-26T07:20:02;7.03;;;4.65;;
45296;SDS011;31040;51.622;10.420;2023-06-26T07:22:35;15.43;;;7.53;;
45296;SDS011;31040;51.622;10.420;2023-06-26T07:25:02;6.13;;;4.40;;
45296;SDS011;31040;51.622;10.420;2023-06-26T07:27:31;5.30;;;4.53;;
45296;SDS011;31040;51.622;10.420;2023-06-26T07:29:59;5.20;;;4.68;;
45296;SDS011;31040;51.622;10.420;2023-06-26T07:32:28;8.27;;;4.95;;
45296;SDS011;31040;51.622;10.420;2023-06-26T07:34:55;5.00;;;4.53;;
45296;SDS011;31040;51.622;10.420;2023-06-26T07:37:23;5.38;;;4.88;;
45296;SDS011;31040;51.622;10.420;2023-06-26T07:39:50;5.30;;;4.72;;
45296;SDS011;31040;51.622;10.420;2023-06-26T07:42:18;11.82;;;6.40;;
45296;SDS011;31040;51.622;10.420;2023-06-26T07:44:45;5.53;;;5.03;;
45296;SDS011;31040;51.622;10.420;2023-06-26T07:47:13;5.43;;;4.93;;
45296;SDS011;31040;51.622;10.420;2023-06-26T07:49:40;7.07;;;5.13;;
45296;SDS011;31040;51.622;10.420;2023-06-26T07:52:08;5.90;;;5.25;;
45296;SDS011;31040;51.622;10.420;2023-06-26T07:54:37;7.03;;;5.35;;
45296;SDS011;31040;51.622;10.420;2023-06-26T07:57:05;6.03;;;4.88;;
45296;SDS011;31040;51.622;10.420;2023-06-26T07:59:37;9.30;;;6.43;;
45296;SDS011;31040;51.622;10.420;2023-06-26T08:02:05;5.85;;;5.20;;
45296;SDS011;31040;51.622;10.420;2023-06-26T08:04:33;6.10;;;5.35;;
45296;SDS011;31040;51.622;10.420;2023-06-26T08:07:01;5.65;;;5.15;;
45296;SDS011;31040;51.622;10.420;2023-06-26T08:09:30;5.40;;;4.90;;
45296;SDS011;31040;51.622;10.420;2023-06-26T08:11:58;5.47;;;4.97;;
45296;SDS011;31040;51.622;10.420;2023-06-26T08:14:26;5.85;;;5.05;;
45296;SDS011;31040;51.622;10.420;2023-06-26T08:16:53;6.72;;;5.07;;
45296;SDS011;31040;51.622;10.420;2023-06-26T08:19:21;5.60;;;5.10;;
45296;SDS011;31040;51.622;10.420;2023-06-26T08:21:48;6.25;;;5.20;;
45296;SDS011;31040;51.622;10.420;2023-06-26T08:24:15;5.80;;;5.18;;
45296;SDS011;31040;51.622;10.420;2023-06-26T08:26:45;6.00;;;5.38;;
45296;SDS011;31040;51.622;10.420;2023-06-26T08:29:13;6.63;;;4.88;;
45296;SDS011;31040;51.622;10.420;2023-06-26T08:31:41;5.13;;;4.72;;
45296;SDS011;31040;51.622;10.420;2023-06-26T08:34:08;5.75;;;5.28;;
45296;SDS011;31040;51.622;10.420;2023-06-26T08:36:36;6.20;;;5.60;;
45296;SDS011;31040;51.622;10.420;2023-06-26T08:39:03;6.00;;;5.43;;
45296;SDS011;31040;51.622;10.420;2023-06-26T08:41:35;6.32;;;5.28;;
45296;SDS011;31040;51.622;10.420;2023-06-26T08:44:02;5.63;;;5.13;;
45296;SDS011;31040;51.622;10.420;2023-06-26T08:46:31;8.25;;;5.63;;
45296;SDS011;31040;51.622;10.420;2023-06-26T08:49:18;5.78;;;5.25;;
45296;SDS011;31040;51.622;10.420;2023-06-26T08:51:50;5.20;;;4.70;;
45296;SDS011;31040;51.622;10.420;2023-06-26T08:54:20;6.07;;;5.25;;
45296;SDS011;31040;51.622;10.420;2023-06-26T08:56:49;5.43;;;5.03;;
45296;SDS011;31040;51.622;10.420;2023-06-26T08:59:17;5.68;;;5.07;;
45296;SDS011;31040;51.622;10.420;2023-06-26T09:01:44;6.28;;;4.93;;
45296;SDS011;31040;51.622;10.420;2023-06-26T09:04:12;6.78;;;5.30;;
45296;SDS011;31040;51.622;10.420;2023-06-26T09:06:40;5.93;;;5.30;;
45296;SDS011;31040;51.622;10.420;2023-06-26T09:09:08;6.25;;;5.75;;
45296;SDS011;31040;51.622;10.420;2023-06-26T09:11:37;5.10;;;4.70;;
45296;SDS011;31040;51.622;10.420;2023-06-26T09:14:04;6.70;;;4.63;;
45296;SDS011;31040;51.622;10.420;2023-06-26T09:16:39;5.75;;;5.35;;
45296;SDS011;31040;51.622;10.420;2023-06-26T09:19:10;6.13;;;5.63;;
45296;SDS011;31040;51.622;10.420;2023-06-26T09:21:39;5.15;;;4.75;;
45296;SDS011;31040;51.622;10.420;2023-06-26T09:24:07;5.45;;;5.03;;
45296;SDS011;31040;51.622;10.420;2023-06-26T09:26:38;5.75;;;5.22;;
45296;SDS011;31040;51.622;10.420;2023-06-26T09:29:06;6.53;;;6.03;;
45296;SDS011;31040;51.622;10.420;2023-06-26T09:31:35;7.32;;;5.43;;
45296;SDS011;31040;51.622;10.420;2023-06-26T09:34:07;6.70;;;6.20;;
45296;SDS011;31040;51.622;10.420;2023-06-26T09:36:35;6.32;;;5.72;;
45296;SDS011;31040;51.622;10.420;2023-06-26T09:39:06;6.03;;;5.50;;
45296;SDS011;31040;51.622;10.420;2023-06-26T09:41:40;6.60;;;6.00;;
45296;SDS011;31040;51.622;10.420;2023-06-26T09:44:10;6.18;;;5.20;;
45296;SDS011;31040;51.622;10.420;2023-06-26T09:46:38;8.48;;;7.60;;
45296;SDS011;31040;51.622;10.420;2023-06-26T09:49:10;10.65;;;9.60;;
45296;SDS011;31040;51.622;10.420;2023-06-26T09:51:38;5.43;;;4.93;;
45296;SDS011;31040;51.622;10.420;2023-06-26T09:54:06;6.50;;;5.90;;
45296;SDS011;31040;51.622;10.420;2023-06-26T09:56:34;11.07;;;10.15;;
45296;SDS011;31040;51.622;10.420;2023-06-26T09:59:03;6.68;;;5.80;;
45296;SDS011;31040;51.622;10.420;2023-06-26T10:01:31;7.13;;;6.15;;
45296;SDS011;31040;51.622;10.420;2023-06-26T10:03:58;6.55;;;6.05;;
45296;SDS011;31040;51.622;10.420;2023-06-26T10:06:33;5.50;;;5.00;;
45296;SDS011;31040;51.622;10.420;2023-06-26T10:09:02;5.68;;;5.10;;
45296;SDS011;31040;51.622;10.420;2023-06-26T10:11:33;6.25;;;5.05;;
45296;SDS011;31040;51.622;10.420;2023-06-26T10:14:02;4.97;;;4.57;;
45296;SDS011;31040;51.622;10.420;2023-06-26T10:16:42;6.15;;;5.07;;
45296;SDS011;31040;51.622;10.420;2023-06-26T10:19:10;6.43;;;5.90;;
45296;SDS011;31040;51.622;10.420;2023-06-26T10:21:38;5.45;;;4.90;;
45296;SDS011;31040;51.622;10.420;2023-06-26T10:24:06;5.40;;;4.90;;
45296;SDS011;31040;51.622;10.420;2023-06-26T10:26:35;5.45;;;4.95;;
45296;SDS011;31040;51.622;10.420;2023-06-26T10:29:05;6.05;;;5.47;;
45296;SDS011;31040;51.622;10.420;2023-06-26T10:31:34;5.40;;;4.90;;
45296;SDS011;31040;51.622;10.420;2023-06-26T10:34:02;5.70;;;5.20;;
45296;SDS011;31040;51.622;10.420;2023-06-26T10:36:30;5.25;;;4.78;;
45296;SDS011;31040;51.622;10.420;2023-06-26T10:38:59;6.10;;;4.90;;
45296;SDS011;31040;51.622;10.420;2023-06-26T10:41:29;6.10;;;5.40;;
45296;SDS011;31040;51.622;10.420;2023-06-26T10:44:06;5.60;;;5.13;;
45296;SDS011;31040;51.622;10.420;2023-06-26T10:46:53;6.32;;;5.72;;
45296;SDS011;31040;51.622;10.420;2023-06-26T10:49:25;6.50;;;5.97;;
45296;SDS011;31040;51.622;10.420;2023-06-26T10:51:52;5.78;;;5.28;;
45296;SDS011;31040;51.622;10.420;2023-06-26T10:54:22;5.95;;;5.45;;
45296;SDS011;31040;51.622;10.420;2023-06-26T10:56:50;9.00;;;6.70;;
45296;SDS011;31040;51.622;10.420;2023-06-26T10:59:18;6.53;;;5.93;;
45296;SDS011;31040;51.622;10.420;2023-06-26T11:01:47;6.72;;;5.63;;
45296;SDS011;31040;51.622;10.420;2023-06-26T11:04:39;6.40;;;5.80;;
45296;SDS011;31040;51.622;10.420;2023-06-26T11:07:23;6.35;;;5.72;;
45296;SDS011;31040;51.622;10.420;2023-06-26T11:15:16;6.10;;;5.60;;
45296;SDS011;31040;51.622;10.420;2023-06-26T11:17:44;7.03;;;6.32;;
45296;SDS011;31040;51.622;10.420;2023-06-26T11:20:12;7.90;;;6.90;;
45296;SDS011;31040;51.622;10.420;2023-06-26T11:22:40;7.00;;;6.40;;
45296;SDS011;31040;51.622;10.420;2023-06-26T11:25:09;7.03;;;6.43;;
45296;SDS011;31040;51.622;10.420;2023-06-26T11:30:04;7.25;;;6.43;;
45296;SDS011;31040;51.622;10.420;2023-06-26T11:32:32;7.43;;;6.65;;
45296;SDS011;31040;51.622;10.420;2023-06-26T11:34:59;6.88;;;6.32;;
45296;SDS011;31040;51.622;10.420;2023-06-26T11:37:27;6.65;;;6.05;;
45296;SDS011;31040;51.622;10.420;2023-06-26T11:39:54;7.15;;;5.90;;
45296;SDS011;31040;51.622;10.420;2023-06-26T11:42:22;7.50;;;6.18;;
45296;SDS011;31040;51.622;10.420;2023-06-26T11:44:51;6.03;;;5.53;;
45296;SDS011;31040;51.622;10.420;2023-06-26T11:47:19;6.53;;;5.80;;
45296;SDS011;31040;51.622;10.420;2023-06-26T11:49:48;8.57;;;6.50;;
45296;SDS011;31040;51.622;10.420;2023-06-26T11:52:16;7.22;;;6.18;;
45296;SDS011;31040;51.622;10.420;2023-06-26T11:54:44;7.55;;;6.43;;
45296;SDS011;31040;51.622;10.420;2023-06-26T11:57:15;8.23;;;7.07;;
45296;SDS011;31040;51.622;10.420;2023-06-26T11:59:44;8.25;;;7.45;;
45296;SDS011;31040;51.622;10.420;2023-06-26T12:02:13;10.75;;;8.20;;
45296;SDS011;31040;51.622;10.420;2023-06-26T12:04:42;10.70;;;8.43;;
45296;SDS011;31040;51.622;10.420;2023-06-26T12:07:10;10.15;;;8.95;;
45296;SDS011;31040;51.622;10.420;2023-06-26T12:09:39;10.45;;;8.90;;
45296;SDS011;31040;51.622;10.420;2023-06-26T12:12:07;9.50;;;8.57;;
45296;SDS011;31040;51.622;10.420;2023-06-26T12:14:34;12.48;;;8.52;;
45296;SDS011;31040;51.622;10.420;2023-06-26T12:17:08;10.48;;;8.63;;
45296;SDS011;31040;51.622;10.420;2023-06-26T12:19:38;10.43;;;9.35;;
45296;SDS011;31040;51.622;10.420;2023-06-26T12:22:06;11.18;;;10.00;;
45296;SDS011;31040;51.622;10.420;2023-06-26T12:24:36;10.30;;;9.40;;
45296;SDS011;31040;51.622;10.420;2023-06-26T12:27:07;11.75;;;10.55;;
45296;SDS011;31040;51.622;10.420;2023-06-26T12:29:36;11.75;;;10.30;;
45296;SDS011;31040;51.622;10.420;2023-06-26T12:32:03;10.80;;;9.65;;
45296;SDS011;31040;51.622;10.420;2023-06-26T12:34:33;10.32;;;9.15;;
45296;SDS011;31040;51.622;10.420;2023-06-26T12:37:07;10.50;;;9.40;;
45296;SDS011;31040;51.622;10.420;2023-06-26T12:39:49;10.88;;;9.77;;
45296;SDS011;31040;51.622;10.420;2023-06-26T12:42:21;9.77;;;8.30;;
45296;SDS011;31040;51.622;10.420;2023-06-26T12:44:49;11.25;;;8.60;;
45296;SDS011;31040;51.622;10.420;2023-06-26T12:47:17;10.70;;;9.23;;
45296;SDS011;31040;51.622;10.420;2023-06-26T12:49:45;12.25;;;10.10;;
45296;SDS011;31040;51.622;10.420;2023-06-26T12:52:13;11.65;;;9.98;;
45296;SDS011;31040;51.622;10.420;2023-06-26T12:54:42;11.15;;;10.15;;
45296;SDS011;31040;51.622;10.420;2023-06-26T12:57:10;10.65;;;9.18;;
45296;SDS011;31040;51.622;10.420;2023-06-26T12:59:40;12.98;;;10.52;;
45296;SDS011;31040;51.622;10.420;2023-06-26T13:02:08;10.52;;;9.52;;
45296;SDS011;31040;51.622;10.420;2023-06-26T13:04:37;12.07;;;9.63;;
45296;SDS011;31040;51.622;10.420;2023-06-26T13:07:08;11.48;;;10.32;;
45296;SDS011;31040;51.622;10.420;2023-06-26T13:09:36;10.55;;;9.55;;
45296;SDS011;31040;51.622;10.420;2023-06-26T13:12:04;10.13;;;9.13;;
45296;SDS011;31040;51.622;10.420;2023-06-26T13:14:34;12.52;;;10.63;;
45296;SDS011;31040;51.622;10.420;2023-06-26T13:17:01;13.82;;;10.75;;
45296;SDS011;31040;51.622;10.420;2023-06-26T13:19:32;13.10;;;10.38;;
45296;SDS011;31040;51.622;10.420;2023-06-26T13:21:59;12.45;;;11.00;;
45296;SDS011;31040;51.622;10.420;2023-06-26T13:24:27;12.90;;;10.18;;
45296;SDS011;31040;51.622;10.420;2023-06-26T13:26:55;10.77;;;9.80;;
45296;SDS011;31040;51.622;10.420;2023-06-26T13:29:22;11.90;;;10.75;;
45296;SDS011;31040;51.622;10.420;2023-06-26T13:31:50;11.38;;;10.25;;
45296;SDS011;31040;51.622;10.420;2023-06-26T13:34:21;10.80;;;9.70;;
45296;SDS011;31040;51.622;10.420;2023-06-26T13:36:54;10.98;;;9.98;;
45296;SDS011;31040;51.622;10.420;2023-06-26T13:39:22;10.82;;;9.82;;
45296;SDS011;31040;51.622;10.420;2023-06-26T13:41:49;12.85;;;10.05;;
45296;SDS011;31040;51.622;10.420;2023-06-26T13:44:16;10.73;;;9.73;;
45296;SDS011;31040;51.622;10.420;2023-06-26T13:47:03;11.15;;;10.15;;
45296;SDS011;31040;51.622;10.420;2023-06-26T13:49:32;11.70;;;10.18;;
45296;SDS011;31040;51.622;10.420;2023-06-26T13:52:00;12.10;;;10.85;;
45296;SDS011;31040;51.622;10.420;2023-06-26T13:54:27;10.15;;;9.13;;
45296;SDS011;31040;51.622;10.420;2023-06-26T13:56:55;10.68;;;9.70;;
45296;SDS011;31040;51.622;10.420;2023-06-26T13:59:23;10.90;;;9.80;;
45296;SDS011;31040;51.622;10.420;2023-06-26T14:01:51;12.27;;;10.25;;
45296;SDS011;31040;51.622;10.420;2023-06-26T14:04:19;11.63;;;9.32;;
45296;SDS011;31040;51.622;10.420;2023-06-26T14:06:47;11.27;;;9.60;;
45296;SDS011;31040;51.622;10.420;2023-06-26T14:09:15;10.63;;;8.95;;
45296;SDS011;31040;51.622;10.420;2023-06-26T14:11:43;12.55;;;9.10;;
45296;SDS011;31040;51.622;10.420;2023-06-26T14:14:10;10.85;;;9.50;;
45296;SDS011;31040;51.622;10.420;2023-06-26T14:16:38;10.10;;;9.10;;
45296;SDS011;31040;51.622;10.420;2023-06-26T14:19:06;13.68;;;8.95;;
45296;SDS011;31040;51.622;10.420;2023-06-26T14:21:35;10.48;;;9.45;;
45296;SDS011;31040;51.622;10.420;2023-06-26T14:24:02;10.50;;;9.50;;
45296;SDS011;31040;51.622;10.420;2023-06-26T14:26:30;9.68;;;8.73;;
45296;SDS011;31040;51.622;10.420;2023-06-26T14:28:58;10.57;;;9.05;;
45296;SDS011;31040;51.622;10.420;2023-06-26T14:31:26;9.10;;;7.50;;
45296;SDS011;31040;51.622;10.420;2023-06-26T14:33:54;9.43;;;7.32;;
45296;SDS011;31040;51.622;10.420;2023-06-26T14:36:21;8.90;;;7.10;;
45296;SDS011;31040;51.622;10.420;2023-06-26T14:38:48;7.53;;;6.82;;
45296;SDS011;31040;51.622;10.420;2023-06-26T14:41:16;7.78;;;6.68;;
45296;SDS011;31040;51.622;10.420;2023-06-26T14:43:44;10.23;;;6.90;;
45296;SDS011;31040;51.622;10.420;2023-06-26T14:46:12;7.80;;;6.18;;
45296;SDS011;31040;51.622;10.420;2023-06-26T14:48:40;8.98;;;6.72;;
45296;SDS011;31040;51.622;10.420;2023-06-26T14:51:08;9.52;;;6.65;;
45296;SDS011;31040;51.622;10.420;2023-06-26T14:53:35;6.50;;;5.90;;